Aérodrome :
LOGIN :

S'inscrire | Disclaimer

   EN    FR    IT 

 










Légende :    VFR   VFR Marginal   IFR   IFR Intensif   IFR Très Intensif
Visi : 
Plafond : 
>= 8 km
>= 3000ft
5 à 8 km
1000 à 3000 ft
1500m à 5 km
500 à 1000 ft
800 à 1500m
200 à 500 ft
< 800m
< 200 ft
Symboles :   Orages  Brouillard  Fortes neiges  Fortes précipitations  Vent > 20 kt
SIGMETs :   Divers  Orages  Givrage  Turbulence  Onde Orograph.  Cendres Volcan.






- Altitude de l'aérodrome : 659 ft
- Code IATA : LYN


LFLY - Lyon Bron

DERNIER METAR :
  • 211800Z AUTO 18028G39KT CAVOK 13/07 Q1002 TEMPO SCT080TCU

METARs EXPIRÉS :
  • 211730Z AUTO 21017KT 180V250 9999 BKN048 OVC100 13/07 Q1003 TEMPO 18025G45KT SCT080TCU
  • 211700Z AUTO 19015KT 160V220 9999 FEW054 OVC120 13/07 Q1003 TEMPO 18025G45KT BKN040 SCT080TCU
  • 211630Z AUTO 18014KT CAVOK 12/07 Q1003 TEMPO 18025G45KT BKN040 SCT080TCU
  • 211600Z AUTO 18022KT CAVOK 13/07 Q1002 TEMPO 18025G35KT BKN040 SCT080TCU
  • 211530Z AUTO 19017KT CAVOK 13/07 Q1003 TEMPO 18025G35KT BKN040 SCT080TCU

TAF TAF LFLY
Valide du 21 à 18h jusqu'au 22 à 18h UTC


211700Z 2118/2218 18020KT 9999 FEW050 BKN100
TEMPO 2118/2201 18025G35KT -SHRA SCT080TCU
PROB40
TEMPO 2118/2123 18025G45KT
BECMG 2203/2206 18010KT
PROB30
TEMPO 2208/2212 -SHRA SCT080TCU
TEMPO 2212/2218 4000 -SHRA BKN035 SCT070TCU
BECMG 2214/2216 30010KT
TEMPO 2216/2218 33020G30KT
ATIS : +33 4 72 15 87 96



MET'MAP, la Météo Aéronautique d'un coup d'oeil ! - Copyright ORBIFLY Décembre 2007 - Disclaimer

ORBIFLY MET'MAP TEAM :

Programmation & Développement : Alexandra Zaïnal
Sur une idée originale de : Baudouin d'Aumeries
Assistance à la programmation : Marc-Olivier Méhu
Soutien technique & logistique : Manuel Goepfert

Contact : metmap@orbifly.com




SOURCES & CREDITS :

   NOAA